NEODyS-2

Near Earth Objects - Dynamic Site
NEODyS ∴ Observatories ∴ Site 691 ∴ Obs & residuals
Contact »
691  ▹ 
OBSERVATIONS AND RESIDUALS

691-Steward Observatory, Kitt Peak-Spacewatch

Detections | Residuals | Detections & Residuals

[1-200] [201-400] [401-600] [601-800] [801-1000] [1001-1200] [1201-1400] [1401-1600] [1601-1800] [1801-2000] [2001-2200] [2201-2400] [2401-2600] [2601-2800] [2801-3000] [3001-3200] [3201-3400] [3401-3600] [3601-3800] [3801-4000] [4001-4200] [4201-4400] [4401-4600] [4601-4800] [4801-5000] [5001-5200] [5201-5400] [5401-5600] [5601-5800] [5801-6000] [6001-6200] [6201-6400] [6401-6600] [6601-6800] [6801-7000] [7001-7200] [7201-7400] [7401-7600] [7601-7800] [7801-8000] [8001-8200] [8201-8400] [8401-8600] [8601-8800] [8801-9000] [9001-9200] [9201-9400] [9401-9600] [9601-9800] [9801-10000] [10001-10200] [10201-10400] [10401-10600] [10601-10800] [10801-11000] [11001-11200] [11201-11400] [11401-11600] [11601-11800] [11801-12000] [12001-12200] [12201-12400] [12401-12600] [12601-12800] [12801-13000] [13001-13200] [13201-13400] [13401-13600] [13601-13800] [13801-14000] [14001-14200] [14201-14400] [14401-14600] [14601-14800] [14801-15000] [15001-15200] [15201-15400] [15401-15600] [15601-15800] [15801-16000] [16001-16200] [16201-16400] [16401-16600] [16601-16800] [16801-17000] [17001-17200] [17201-17400] [17401-17600] [17601-17800] [17801-18000] [18001-18200] [18201-18400] [18401-18600] [18601-18800] [18801-19000] [19001-19200] [19201-19400] [19401-19600] [19601-19800] [19801-20000] [20001-20200] [20201-20400] [20401-20600] [20601-20800] [20801-21000] [21001-21200] [21201-21400] [21401-21600] [21601-21800] [21801-22000] [22001-22200] [22201-22400] [22401-22600] [22601-22800] [22801-23000] [23001-23200] [23201-23400] [23401-23600] [23601-23800] [23801-24000] [24001-24200] [24201-24400] [24401-24600] [24601-24800] [24801-25000] [25001-25200] [25201-25400] [25401-25600] [25601-25800] [25801-26000] [26001-26200] [26201-26400] [26401-26600] [26601-26800] [26801-27000] [27001-27200] [27201-27400] [27401-27600] [27601-27800] [27801-28000] [28001-28200] [28201-28400] [28401-28600] [28601-28800] [28801-29000] [29001-29200] [29201-29400] [29401-29600] [29601-29800] [29801-30000] [30001-30200] [30201-30400] [30401-30600] [30601-30800] [30801-31000] [31001-31200] [31201-31400] [31401-31600] [31601-31800] [31801-32000] [32001-32200] [32201-32400] [32401-32600] [32601-32800] [32801-33000] [33001-33200] [33201-33400] [33401-33600] [33601-33800] [33801-34000] [34001-34200] [34201-34400] [34401-34600] [34601-34800] [34801-35000] [35001-35200] [35201-35400] [35401-35600] [35601-35800] [35801-36000] [36001-36200] [36201-36400] [36401-36600] [36601-36800] [36801-37000] [37001-37200] [37201-37400] [37401-37600] [37601-37800] [37801-38000] [38001-38200] [38201-38400] [38401-38600] [38601-38800] [38801-39000] [39001-39200] [39201-39400] [39401-39600] [39601-39800] [39801-40000] [40001-40200] [40201-40400] [40401-40600] [40601-40800] [40801-41000] [41001-41200] [41201-41400] [41401-41600] [41601-41800] [41801-42000] [42001-42200] [42201-42400] [42401-42600] [42601-42800] [42801-43000] [43001-43200] [43201-43400] [43401-43600] [43601-43800] [43801-44000] [44001-44200] [44201-44400] [44401-44600] [44601-44800] [44801-45000] [45001-45200] [45201-45400] [45401-45600] [45601-45800] [45801-46000] [46001-46200] [46201-46400] [46401-46600] [46601-46800] [46801-47000] [47001-47200] [47201-47400] [47401-47600] [47601-47800] [47801-48000] [48001-48200] [48201-48400] [48401-48600] [48601-48800] [48801-49000] [49001-49200] [49201-49400] [49401-49600] [49601-49800] [49801-50000] [50001-50200] [50201-50388]

Designation T Tech N Date Right Ascension Declination Apparent Magnitude Star Catalog Site code χ Used A Used M
yr-mo-day precision hr:min:sec precision rms F bias residual deg min sec precision rms F bias residual mag/col rms residual
2002BA1 O C 2002-01-20.48497 1.000E-05 09:23:14.210 1.500E-01 0.600 F 0.297 -0.286 +16° 25' 46.80" 1.000E-01 0.600 F 0.387 0.263 20.7 V 0.70 0.60 d 691 0.66 Yes Yes
2002BA1 O C 2002-01-20.50766 1.000E-05 09:23:15.580 1.500E-01 0.600 F 0.297 0.239 +16° 25' 53.40" 1.000E-01 0.600 F 0.387 0.411 20.6 V 0.70 0.50 d 691 0.80 Yes Yes
2002BA1 O C 2002-01-21.35521 1.000E-05 09:24:13.220 1.500E-01 0.600 F 0.297 -0.310 +16° 30' 29.90" 1.000E-01 0.600 F 0.387 -0.108 20.4 V 0.70 0.36 d 691 0.56 Yes Yes
2002BA1 O C 2002-01-21.36058 1.000E-05 09:24:13.530 1.500E-01 0.600 F 0.297 -0.162 +16° 30' 31.40" 1.000E-01 0.600 F 0.387 -0.407 20.3 V 0.70 0.26 d 691 0.74 Yes Yes
2002BA1 O C 2002-01-21.36555 1.000E-05 09:24:13.800 1.500E-01 0.600 F 0.297 -0.266 +16° 30' 32.90" 1.000E-01 0.600 F 0.387 -0.564 20.3 V 0.70 0.27 d 691 1.05 Yes Yes
2002BA1 O C 2002-01-22.41213 1.000E-05 09:25:23.300 1.500E-01 0.600 F 0.328 0.166 +16° 36' 31.90" 1.000E-01 0.600 F 0.422 -0.127 19.9 V 0.70 -0.06 d 691 0.35 Yes Yes
2002BA1 O C 2002-01-22.41746 1.000E-05 09:25:23.580 1.500E-01 0.600 F 0.328 -0.151 +16° 36' 33.30" 1.000E-01 0.600 F 0.422 -0.536 20.0 V 0.70 0.04 d 691 0.94 Yes Yes
2002BA1 O C 2002-01-22.42299 1.000E-05 09:25:23.920 1.500E-01 0.600 F 0.328 0.221 +16° 36' 35.50" 1.000E-01 0.600 F 0.422 -0.204 20.0 V 0.70 0.04 d 691 0.51 Yes Yes
2002BJ2 O C 2002-01-22.50031 1.000E-05 15:05:29.030 1.500E-01 0.600 F 0.337 -0.424 -14° 00' 55.60" 1.000E-01 0.600 F 0.216 0.200 20.0 V 0.70 -0.55 d 691 0.80 Yes Yes
2002BJ2 O C 2002-01-22.50566 1.000E-05 15:05:29.310 1.500E-01 0.600 F 0.337 -0.451 -14° 01' 00.40" 1.000E-01 0.600 F 0.216 0.133 20.0 V 0.70 -0.55 d 691 0.80 Yes Yes
2002BJ2 O C 2002-01-22.51105 1.000E-05 15:05:29.600 1.500E-01 0.600 F 0.337 -0.360 -14° 01' 05.10" 1.000E-01 0.600 F 0.216 0.200 20.0 V 0.70 -0.55 d 691 0.71 Yes Yes
2002AZ1 O C H 2002-01-24.15590 1.000E-05 06:49:32.080 1.500E-01 0.600 F 0.049 -0.359 +27° 27' 03.30" 1.000E-01 0.600 F 0.046 0.256 21.2 V 0.70 1.55 d 691 0.78 Yes Yes
2002AZ1 O C H 2002-01-24.16093 1.000E-05 06:49:30.450 1.500E-01 0.600 F 0.049 0.290 +27° 27' 17.40" 1.000E-01 0.600 F 0.046 -0.389 21.1 V 0.70 1.45 d 691 0.85 Yes Yes
2002AZ1 O C H 2002-01-24.16618 1.000E-05 06:49:28.750 1.500E-01 0.600 F 0.049 1.012 +27° 27' 32.90" 1.000E-01 0.600 F 0.046 -0.268 21.7 V 0.70 2.05 d 691 1.86 Yes No
2002BA1 O C H 2002-01-24.30435 1.000E-05 09:27:32.810 1.500E-01 0.600 F 0.327 -0.063 +16° 48' 16.60" 1.000E-01 0.600 F 0.355 1.056 20.6 V 0.70 0.77 d 691 1.78 Yes Yes
2002BA1 O C H 2002-01-24.30923 1.000E-05 09:27:33.020 1.500E-01 0.600 F 0.327 -1.096 +16° 48' 17.30" 1.000E-01 0.600 F 0.355 -0.229 20.9 V 0.70 1.07 d 691 1.90 Yes Yes
2002BA1 O C H 2002-01-24.31456 1.000E-05 09:27:33.440 1.500E-01 0.600 F 0.327 0.522 +16° 48' 18.80" 1.000E-01 0.600 F 0.355 -0.889 21.4 V 0.70 1.58 d 691 1.73 Yes Yes
2002BJ2 O C 2002-01-24.54207 1.000E-05 15:07:16.600 1.500E-01 0.600 F 0.231 -0.315 -14° 30' 40.20" 1.000E-01 0.600 F 0.213 0.027 20.2 V 0.70 -0.36 d 691 0.54 Yes Yes
2002BJ2 O C 2002-01-24.54678 1.000E-05 15:07:16.870 1.500E-01 0.600 F 0.231 0.260 -14° 30' 43.70" 1.000E-01 0.600 F 0.213 0.625 20.0 V 0.70 -0.56 d 691 1.17 Yes Yes
2002BJ2 O C 2002-01-24.55166 1.000E-05 15:07:17.050 1.500E-01 0.600 F 0.231 -0.591 -14° 30' 48.80" 1.000E-01 0.600 F 0.213 -0.230 20.4 V 0.70 -0.16 d 691 1.08 Yes Yes
2002AV O C 2002-02-07.10934 1.000E-05 07:57:13.140 1.500E-01 0.600 F 0.241 -0.162 +22° 32' 35.40" 1.000E-01 0.600 F 0.228 0.355 19.8 V 0.70 0.19 d 691 0.66 Yes Yes
2002AV O C 2002-02-07.13267 1.000E-05 07:57:14.730 1.500E-01 0.600 F 0.241 -0.208 +22° 32' 39.30" 1.000E-01 0.600 F 0.228 0.165 19.7 V 0.70 0.09 d 691 0.44 Yes Yes
2002AV O C 2002-02-07.15584 1.000E-05 07:57:16.290 1.500E-01 0.600 F 0.241 -0.133 +22° 32' 43.50" 1.000E-01 0.600 F 0.228 0.452 19.7 V 0.70 0.08 d 691 0.80 Yes Yes
2002CW11 O C t 2002-02-08.39940 1.000E-05 10:01:41.550 1.500E-01 0.600 F 0.278 -0.686 +15° 10' 13.40" 1.000E-01 0.600 F 0.250 1.311 20.4 V 0.70 0.98 d 691 2.58 Yes Yes
2002CW11 O C t 2002-02-08.40754 1.000E-05 10:01:34.760 1.500E-01 0.600 F 0.278 -0.287 +15° 11' 21.00" 1.000E-01 0.600 F 0.250 1.588 19.1 V 0.70 -0.32 d 691 2.81 Yes Yes
2002CW11 O C t 2002-02-08.41568 1.000E-05 10:01:28.030 1.500E-01 0.600 F 0.278 0.734 +15° 12' 28.20" 1.000E-01 0.600 F 0.250 1.645 19.8 V 0.70 0.38 d 691 3.13 Yes Yes
1997CZ3 O C 2002-02-09.10319 1.000E-05 08:19:54.910 1.500E-01 0.600 F 0.273 0.264 +20° 07' 19.30" 1.000E-01 0.600 F 0.142 -0.679 21.1 V 0.70 0.29 d 691 1.22 Yes Yes
1997CZ3 O C 2002-02-09.12523 1.000E-05 08:19:52.280 1.500E-01 0.600 F 0.273 -0.085 +20° 07' 22.20" 1.000E-01 0.600 F 0.142 0.219 21.6 V 0.70 0.79 d 691 0.40 Yes Yes
1997CZ3 O C 2002-02-09.14724 1.000E-05 08:19:49.640 1.500E-01 0.600 F 0.273 -0.511 +20° 07' 24.00" 1.000E-01 0.600 F 0.142 0.062 21.7 V 0.70 0.89 d 691 0.87 Yes Yes
2000PQ9 O C H 2002-02-09.24728 1.000E-05 09:09:02.810 1.500E-01 0.600 F 0.310 -0.230 +08° 14' 15.20" 1.000E-01 0.600 F 0.081 0.991 21.6 V 0.70 0.44 d 691 1.69 Yes Yes
2000PQ9 O C H 2002-02-09.25124 1.000E-05 09:09:02.500 1.500E-01 0.600 F 0.310 -0.014 +08° 14' 14.80" 1.000E-01 0.600 F 0.081 0.020 22.0 V 0.70 0.84 d 691 0.03 Yes Yes
2000PQ9 O C H 2002-02-09.25505 1.000E-05 09:09:02.160 1.500E-01 0.600 F 0.310 -0.424 +08° 14' 16.20" 1.000E-01 0.600 F 0.081 0.872 21.8 V 0.70 0.64 d 691 1.61 Yes Yes
2000NM O C H 2002-02-09.26281 1.000E-05 09:24:20.800 1.500E-01 0.600 F 0.193 -0.950 -09° 01' 11.90" 1.000E-01 0.600 F -0.024 0.244 21.9 V 0.70 0.42 d 691 1.64 Yes Yes
2000NM O C H 2002-02-09.26656 1.000E-05 09:24:20.680 1.500E-01 0.600 F 0.193 0.309 -09° 01' 10.30" 1.000E-01 0.600 F -0.024 1.238 21.6 V 0.70 0.12 d 691 2.13 Yes Yes
2000NM O C H 2002-02-09.27048 1.000E-05 09:24:20.470 1.500E-01 0.600 F 0.193 0.373 -09° 01' 09.20" 1.000E-01 0.600 F -0.024 1.705 21.4 V 0.70 -0.08 d 691 2.91 Yes Yes
2000WK10 O C 2002-02-09.34546 1.000E-05 12:28:00.670 1.500E-01 0.600 F 0.198 -0.091 +28° 09' 36.70" 1.000E-01 0.600 F 0.359 -0.389 21.7 V 0.70 0.91 d 691 0.67 Yes Yes
2000WK10 O C 2002-02-09.34967 1.000E-05 12:28:00.550 1.500E-01 0.600 F 0.198 0.001 +28° 09' 42.30" 1.000E-01 0.600 F 0.359 -0.483 21.8 V 0.70 1.01 d 691 0.81 Yes Yes
2000WK10 O C 2002-02-09.35385 1.000E-05 12:28:00.420 1.500E-01 0.600 F 0.198 -0.048 +28° 09' 48.10" 1.000E-01 0.600 F 0.359 -0.334 22.1 V 0.70 1.31 d 691 0.57 Yes Yes
2000KO44 O C H 2002-02-09.42571 1.000E-05 13:41:00.490 1.500E-01 0.600 F 0.331 -0.705 +26° 49' 05.40" 1.000E-01 0.600 F 0.304 -0.646 22.8 V 0.70 0.82 d 691 1.60 Yes Yes
2000KO44 O C H 2002-02-09.42983 1.000E-05 13:41:00.610 1.500E-01 0.600 F 0.331 0.376 +26° 49' 09.10" 1.000E-01 0.600 F 0.304 -0.886 21.7 V 0.70 -0.28 d 691 1.61 Yes Yes
2000KO44 O C H 2002-02-09.43396 1.000E-05 13:41:00.690 1.500E-01 0.600 F 0.331 0.923 +26° 49' 14.20" 1.000E-01 0.600 F 0.304 0.266 22.3 V 0.70 0.32 d 691 1.60 Yes Yes
2002AW O C H 2002-02-10.19573 1.000E-05 06:52:24.300 1.500E-01 0.600 F -0.004 -0.333 +21° 48' 43.70" 1.000E-01 0.600 F 0.270 1.083 21.9 V 0.70 1.60 d 691 1.89 Yes Yes
2002AW O C H 2002-02-10.19980 1.000E-05 06:52:23.820 1.500E-01 0.600 F -0.004 0.513 +21° 48' 45.40" 1.000E-01 0.600 F 0.270 1.739 21.4 V 0.70 1.10 d 691 3.03 Yes Yes
2002AW O C H 2002-02-10.20409 1.000E-05 06:52:23.270 1.500E-01 0.600 F -0.004 0.790 +21° 48' 45.50" 1.000E-01 0.600 F 0.270 0.744 22.9 V 0.70 2.60 d 691 1.82 Yes No
1994RH O C 2002-02-11.31811 1.000E-05 10:50:48.190 1.500E-01 0.600 F 0.448 -0.168 +08° 02' 32.10" 1.000E-01 0.600 F 0.477 0.131 17.7 V 0.70 0.39 d 691 0.36 Yes Yes
1994RH O C 2002-02-11.33951 1.000E-05 10:50:45.720 1.500E-01 0.600 F 0.448 -0.089 +08° 02' 21.70" 1.000E-01 0.600 F 0.477 0.019 17.7 V 0.70 0.40 d 691 0.15 Yes Yes
1994RH O C 2002-02-11.36063 1.000E-05 10:50:43.280 1.500E-01 0.600 F 0.448 -0.010 +08° 02' 11.50" 1.000E-01 0.600 F 0.477 -0.008 18.6 V 0.70 1.30 d 691 0.02 Yes Yes
2001YT3 O C 2002-02-12.33018 1.000E-05 09:15:08.720 1.500E-01 0.600 F 0.251 -0.209 +13° 37' 14.60" 1.000E-01 0.600 F 0.312 -0.155 19.5 V 0.70 0.24 d 691 0.44 Yes Yes
2001YT3 O C 2002-02-12.33417 1.000E-05 09:15:08.770 1.500E-01 0.600 F 0.251 -0.397 +13° 37' 11.90" 1.000E-01 0.600 F 0.312 -0.160 19.5 V 0.70 0.24 d 691 0.72 Yes Yes
2001YT3 O C 2002-02-12.33851 1.000E-05 09:15:08.850 1.500E-01 0.600 F 0.251 -0.233 +13° 37' 09.10" 1.000E-01 0.600 F 0.312 -0.025 19.6 V 0.70 0.34 d 691 0.39 Yes Yes
2002BA1 O C 2002-02-12.34356 1.000E-05 09:54:00.890 1.500E-01 0.600 F 0.292 -0.437 +19° 46' 30.80" 1.000E-01 0.600 F 0.283 -0.322 19.0 V 0.70 0.36 d 691 0.91 Yes Yes
2002BA1 O C 2002-02-12.34758 1.000E-05 09:54:01.270 1.500E-01 0.600 F 0.292 -0.195 +19° 46' 33.40" 1.000E-01 0.600 F 0.283 -0.472 19.2 V 0.70 0.56 d 691 0.86 Yes Yes
2002BA1 O C 2002-02-12.35166 1.000E-05 09:54:01.630 1.500E-01 0.600 F 0.292 -0.316 +19° 46' 36.20" 1.000E-01 0.600 F 0.283 -0.454 19.2 V 0.70 0.56 d 691 0.93 Yes Yes
2002CF26 O C H 2002-02-15.45213 1.000E-05 11:40:35.610 1.500E-01 0.600 F 0.364 -0.031 +04° 41' 33.40" 1.000E-01 0.600 F 0.305 1.167 d 691 1.95 Yes No
2002CF26 O C H 2002-02-15.47321 1.000E-05 11:40:32.890 1.500E-01 0.600 F 0.364 0.202 +04° 41' 24.20" 1.000E-01 0.600 F 0.305 1.532 d 691 2.58 Yes No
2002CF26 O C H 2002-02-15.49457 1.000E-05 11:40:30.150 1.500E-01 0.600 F 0.364 0.632 +04° 41' 14.20" 1.000E-01 0.600 F 0.305 1.232 d 691 2.31 Yes No
2001YT3 O C 2002-02-16.37313 1.000E-05 09:16:58.260 1.500E-01 0.600 F 0.331 -0.489 +12° 53' 33.20" 1.000E-01 0.600 F 0.346 -0.025 19.9 V 0.70 0.43 d 691 0.82 Yes Yes
2001YT3 O C 2002-02-16.37706 1.000E-05 09:16:58.350 1.500E-01 0.600 F 0.331 -0.327 +12° 53' 30.60" 1.000E-01 0.600 F 0.346 -0.092 19.9 V 0.70 0.43 d 691 0.57 Yes Yes
2001YT3 O C 2002-02-16.38097 1.000E-05 09:16:58.430 1.500E-01 0.600 F 0.331 -0.312 +12° 53' 28.10" 1.000E-01 0.600 F 0.346 -0.069 20.1 V 0.70 0.63 d 691 0.54 Yes Yes
2002BA1 O C H 2002-02-16.46823 1.000E-05 10:01:52.160 1.500E-01 0.600 F 0.319 -0.285 +20° 34' 34.60" 1.000E-01 0.600 F 0.395 0.351 19.8 V 0.70 1.26 d 691 0.76 Yes Yes
2002BA1 O C H 2002-02-16.47233 1.000E-05 10:01:52.640 1.500E-01 0.600 F 0.319 -0.015 +20° 34' 37.20" 1.000E-01 0.600 F 0.395 0.367 d 691 0.62 Yes No
2002BA1 O C H 2002-02-16.47641 1.000E-05 10:01:53.090 1.500E-01 0.600 F 0.319 -0.157 +20° 34' 40.60" 1.000E-01 0.600 F 0.395 1.201 19.4 V 0.70 0.86 d 691 2.04 Yes Yes
2002CW46 O C H 2002-02-21.38952 1.000E-05 11:34:16.740 1.500E-01 0.600 F 0.386 -0.185 +05° 28' 55.10" 1.000E-01 0.600 F 0.244 1.114 21.7 V 0.70 1.38 d 691 1.90 Yes Yes
1992SL O C H 2002-02-21.40150 1.000E-05 11:51:34.240 1.500E-01 0.600 F 0.357 0.465 +05° 19' 56.20" 1.000E-01 0.600 F 0.329 1.636 21.6 V 0.70 0.34 d 691 2.84 Yes Yes
2002CW46 O C H 2002-02-21.41062 1.000E-05 11:34:14.540 1.500E-01 0.600 F 0.386 0.064 +05° 28' 52.10" 1.000E-01 0.600 F 0.244 -0.380 20.7 V 0.70 0.38 d 691 0.65 Yes Yes
1992SL O C H 2002-02-21.42260 1.000E-05 11:51:32.610 1.500E-01 0.600 F 0.357 -0.437 +05° 20' 01.40" 1.000E-01 0.600 F 0.329 0.746 21.2 V 0.70 -0.06 d 691 1.45 Yes Yes
2002CW46 O C H 2002-02-21.43199 1.000E-05 11:34:12.270 1.500E-01 0.600 F 0.348 -0.301 +05° 28' 52.10" 1.000E-01 0.600 F 0.389 1.015 21.3 V 0.70 0.98 d 691 1.79 Yes Yes
1992SL O C H 2002-02-21.44398 1.000E-05 11:51:31.010 1.500E-01 0.600 F 0.357 -0.593 +05° 20' 08.60" 1.000E-01 0.600 F 0.329 1.782 22.2 V 0.70 0.94 d 691 3.14 Yes Yes
1994CK1 O C 2002-03-05.23037 1.000E-05 10:23:44.560 1.500E-01 0.735 F 0.496 -0.403 +08° 50' 15.00" 1.000E-01 0.735 F 0.500 -0.324 21.7 V 0.70 0.71 d 691 0.70 Yes Yes
1994CK1 O C 2002-03-05.23522 1.000E-05 10:23:44.220 1.500E-01 0.735 F 0.496 -0.023 +08° 50' 16.60" 1.000E-01 0.735 F 0.500 -0.550 21.8 V 0.70 0.81 d 691 0.75 Yes Yes
1994CK1 O C 2002-03-05.23990 1.000E-05 10:23:43.830 1.500E-01 0.735 F 0.496 -0.573 +08° 50' 18.90" 1.000E-01 0.735 F 0.500 -0.011 21.7 V 0.70 0.71 d 691 0.78 Yes Yes
1994CK1 O C 2002-03-05.24496 1.000E-05 10:23:43.500 1.500E-01 0.735 F 0.496 0.192 +08° 50' 20.80" 1.000E-01 0.735 F 0.500 -0.015 21.5 V 0.70 0.51 d 691 0.26 Yes Yes
1994CK1 O C 2002-03-05.24968 1.000E-05 10:23:43.150 1.500E-01 0.735 F 0.496 0.281 +08° 50' 22.10" 1.000E-01 0.735 F 0.500 -0.490 21.4 V 0.70 0.41 d 691 0.77 Yes Yes
1994CK1 O C 2002-03-05.25474 1.000E-05 10:23:42.780 1.500E-01 0.735 F 0.496 0.455 +08° 50' 24.50" 1.000E-01 0.735 F 0.500 0.008 21.0 V 0.70 0.01 d 691 0.62 Yes Yes
Beowulf O C 2002-03-06.24932 1.000E-05 11:13:24.880 1.500E-01 0.600 F 0.469 0.123 +05° 48' 06.20" 1.000E-01 0.600 F 0.451 0.000 20.4 V 0.70 0.76 d 691 0.21 Yes Yes
Beowulf O C 2002-03-06.27092 1.000E-05 11:13:22.790 1.500E-01 0.600 F 0.469 -0.093 +05° 48' 30.90" 1.000E-01 0.600 F 0.451 -0.145 20.3 V 0.70 0.66 d 691 0.29 Yes Yes
Beowulf O C 2002-03-06.29272 1.000E-05 11:13:20.690 1.500E-01 0.600 F 0.469 -0.133 +05° 48' 56.10" 1.000E-01 0.600 F 0.451 -0.010 20.4 V 0.70 0.77 d 691 0.22 Yes Yes
2002EY2 O C 2002-03-06.30472 1.000E-05 10:56:37.690 1.500E-01 0.600 F 0.517 0.570 +06° 05' 42.30" 1.000E-01 0.600 F 0.283 0.057 21.9 V 0.70 0.96 d 691 0.96 Yes Yes
2002EY2 O C 2002-03-06.32620 1.000E-05 10:56:34.820 1.500E-01 0.600 F 0.517 -0.372 +06° 05' 39.60" 1.000E-01 0.600 F 0.283 0.125 22.3 V 0.70 1.36 d 691 0.66 Yes Yes
2002EY2 O C 2002-03-06.34889 1.000E-05 10:56:31.900 1.500E-01 0.600 F 0.517 0.269 +06° 05' 36.60" 1.000E-01 0.600 F 0.283 0.066 21.6 V 0.70 0.66 d 691 0.46 Yes Yes
2002EY2 O C 2002-03-09.27252 1.000E-05 10:50:28.420 1.500E-01 0.600 F 0.461 -0.349 +05° 59' 17.40" 1.000E-01 0.600 F 0.314 0.058 21.5 V 0.70 0.34 d 691 0.59 Yes Yes
2002EY2 O C 2002-03-09.28042 1.000E-05 10:50:27.460 1.500E-01 0.600 F 0.461 0.023 +05° 59' 16.00" 1.000E-01 0.600 F 0.314 -0.313 21.9 V 0.70 0.74 d 691 0.53 Yes Yes
2002EY2 O C 2002-03-09.28844 1.000E-05 10:50:26.440 1.500E-01 0.600 F 0.461 -0.276 +05° 59' 15.50" 1.000E-01 0.600 F 0.314 0.234 21.9 V 0.70 0.74 d 691 0.61 Yes Yes
1992SL O C 2002-03-09.31642 1.000E-05 11:29:32.770 1.500E-01 0.600 F 0.471 0.175 +06° 44' 28.40" 1.000E-01 0.600 F 0.302 -0.148 21.6 V 0.70 0.89 d 691 0.37 Yes Yes
1992SL O C 2002-03-09.33774 1.000E-05 11:29:30.770 1.500E-01 0.600 F 0.471 -0.082 +06° 44' 35.20" 1.000E-01 0.600 F 0.302 -0.292 21.7 V 0.70 0.99 d 691 0.50 Yes Yes
1992SL O C 2002-03-09.35920 1.000E-05 11:29:28.770 1.500E-01 0.600 F 0.471 -0.150 +06° 44' 42.40" 1.000E-01 0.600 F 0.302 -0.067 21.2 V 0.70 0.49 d 691 0.28 Yes Yes
2002DJ5 O C 2002-03-11.17723 1.000E-05 08:25:43.990 1.500E-01 0.600 F 0.294 0.047 +23° 33' 29.80" 1.000E-01 0.600 F 0.402 0.038 21.9 V 0.70 0.67 d 691 0.10 Yes Yes
2002DJ5 O C 2002-03-11.18217 1.000E-05 08:25:43.300 1.500E-01 0.600 F 0.294 -0.143 +23° 33' 29.20" 1.000E-01 0.600 F 0.402 -0.521 22.3 V 0.70 1.07 d 691 0.90 Yes Yes
2002DJ5 O C 2002-03-11.18734 1.000E-05 08:25:42.610 1.500E-01 0.600 F 0.294 0.099 +23° 33' 29.50" 1.000E-01 0.600 F 0.402 -0.174 21.7 V 0.70 0.47 d 691 0.34 Yes Yes
2002ES11 O C 2002-03-13.16756 1.000E-05 09:42:19.580 1.500E-01 0.600 F 0.380 0.318 +13° 28' 49.80" 1.000E-01 0.600 F 0.390 -0.644 21.6 V 0.70 0.05 d 691 1.26 Yes Yes
2002ET11 O C 2002-03-13.17438 1.000E-05 09:52:10.010 1.500E-01 0.600 F 0.461 -0.214 +13° 42' 10.80" 1.000E-01 0.600 F 0.359 -0.237 21.9 V 0.70 0.45 d 691 0.54 Yes Yes
2002ES11 O C 2002-03-13.18910 1.000E-05 09:42:17.100 1.500E-01 0.600 F 0.380 0.133 +13° 28' 40.50" 1.000E-01 0.600 F 0.390 -0.831 21.8 V 0.70 0.25 d 691 1.47 Yes Yes
2002ET11 O C 2002-03-13.19593 1.000E-05 09:52:08.520 1.500E-01 0.600 F 0.461 -0.042 +13° 42' 38.70" 1.000E-01 0.600 F 0.359 -0.236 22.2 V 0.70 0.75 d 691 0.40 Yes Yes
2002ES11 O C 2002-03-13.21168 1.000E-05 09:42:14.510 1.500E-01 0.600 F 0.380 0.191 +13° 28' 31.30" 1.000E-01 0.600 F 0.390 -0.382 22.0 V 0.70 0.45 d 691 0.75 Yes Yes
2002ET11 O C 2002-03-13.21852 1.000E-05 09:52:06.970 1.500E-01 0.600 F 0.461 0.377 +13° 43' 08.00" 1.000E-01 0.600 F 0.359 -0.128 22.0 V 0.70 0.55 d 691 0.68 Yes Yes
2002AW O C H 2002-03-18.12499 1.000E-05 06:37:02.680 1.500E-01 0.600 F 0.199 0.053 +22° 57' 03.10" 1.000E-01 0.600 F 0.179 0.626 21.7 V 0.70 0.23 d 691 1.05 Yes Yes
2002AW O C H 2002-03-18.12932 1.000E-05 06:37:02.900 1.500E-01 0.600 F 0.199 0.395 +22° 57' 03.00" 1.000E-01 0.600 F 0.179 0.454 21.5 V 0.70 0.03 d 691 1.00 Yes Yes
2002AW O C H 2002-03-18.13379 1.000E-05 06:37:03.110 1.500E-01 0.600 F 0.199 0.509 +22° 57' 01.70" 1.000E-01 0.600 F 0.179 -0.915 21.4 V 0.70 -0.07 d 691 1.75 Yes Yes
2002FO7 O C 2002-03-20.18631 1.000E-05 10:32:19.290 1.500E-01 0.600 F 0.386 -0.171 +10° 46' 32.30" 1.000E-01 0.600 F 0.340 0.484 21.6 V 0.70 0.31 d 691 0.94 Yes Yes
2002EY O C 2002-03-20.19172 1.000E-05 10:40:07.160 1.500E-01 0.600 F 0.398 -0.244 +10° 38' 53.10" 1.000E-01 0.600 F 0.264 -0.150 20.6 V 0.70 1.12 d 691 0.50 Yes Yes
1994CN2 O C 2002-03-20.19476 1.000E-05 10:44:30.760 1.500E-01 0.600 F 0.452 -0.220 +10° 32' 55.80" 1.000E-01 0.600 F 0.287 0.118 20.1 V 0.70 0.54 d 691 0.42 Yes Yes
2002FO7 O C 2002-03-20.20786 1.000E-05 10:32:17.370 1.500E-01 0.600 F 0.386 -0.138 +10° 47' 12.80" 1.000E-01 0.600 F 0.340 0.266 21.5 V 0.70 0.21 d 691 0.55 Yes Yes
2002EY O C 2002-03-20.21328 1.000E-05 10:40:07.520 1.500E-01 0.600 F 0.398 -0.122 +10° 39' 40.60" 1.000E-01 0.600 F 0.264 -0.125 20.4 V 0.70 0.92 d 691 0.30 Yes Yes
1994CN2 O C 2002-03-20.21630 1.000E-05 10:44:29.060 1.500E-01 0.600 F 0.452 0.062 +10° 33' 05.60" 1.000E-01 0.600 F 0.287 0.250 20.1 V 0.70 0.54 d 691 0.43 Yes Yes
2002FO7 O C 2002-03-20.22928 1.000E-05 10:32:15.530 1.500E-01 0.600 F 0.386 0.939 +10° 47' 52.20" 1.000E-01 0.600 F 0.340 -0.746 21.5 V 0.70 0.21 d 691 2.19 Yes Yes
2002EY O C 2002-03-20.23474 1.000E-05 10:40:07.860 1.500E-01 0.600 F 0.398 -0.184 +10° 40' 27.70" 1.000E-01 0.600 F 0.264 -0.160 20.5 V 0.70 1.02 d 691 0.42 Yes Yes
1994CN2 O C 2002-03-20.23773 1.000E-05 10:44:27.330 1.500E-01 0.600 F 0.452 -0.205 +10° 33' 15.10" 1.000E-01 0.600 F 0.287 0.156 20.2 V 0.70 0.64 d 691 0.43 Yes Yes
2002EY11 O C 2002-03-21.19394 1.000E-05 10:50:12.880 1.500E-01 0.600 F 0.570 -0.253 +07° 40' 56.10" 1.000E-01 0.600 F 0.532 -0.237 20.2 V 0.70 0.52 d 691 0.63 Yes Yes
2002EY11 O C 2002-03-21.21564 1.000E-05 10:50:16.840 1.500E-01 0.600 F 0.570 -0.118 +07° 41' 38.20" 1.000E-01 0.600 F 0.532 -0.411 20.1 V 0.70 0.42 d 691 0.78 Yes Yes
2002EY11 O C 2002-03-21.23718 1.000E-05 10:50:20.740 1.500E-01 0.600 F 0.570 -0.233 +07° 42' 20.40" 1.000E-01 0.600 F 0.532 -0.056 20.5 V 0.70 0.82 d 691 0.44 Yes Yes
2002FO7 O C 2002-03-21.31726 1.000E-05 10:30:44.730 1.500E-01 0.600 F 0.338 -0.119 +11° 21' 29.50" 1.000E-01 0.600 F 0.410 -0.135 22.3 V 0.70 0.95 d 691 0.33 Yes Yes
2002FO7 O C 2002-03-21.32146 1.000E-05 10:30:44.350 1.500E-01 0.600 F 0.338 -0.435 +11° 21' 37.40" 1.000E-01 0.600 F 0.410 0.127 22.1 V 0.70 0.75 d 691 0.83 Yes Yes
2002FO7 O C 2002-03-21.32538 1.000E-05 10:30:44.040 1.500E-01 0.600 F 0.338 -0.078 +11° 21' 44.20" 1.000E-01 0.600 F 0.410 -0.200 22.1 V 0.70 0.75 d 691 0.39 Yes Yes
2001YT3 O C H 2002-03-23.18542 1.000E-05 09:45:43.640 1.500E-01 0.600 F 0.374 0.049 +08° 05' 30.90" 1.000E-01 0.600 F 0.418 0.794 21.1 V 0.70 -0.10 d 691 1.33 Yes Yes
2001YT3 O C H 2002-03-23.18969 1.000E-05 09:45:43.940 1.500E-01 0.600 F 0.374 0.370 +08° 05' 29.80" 1.000E-01 0.600 F 0.418 1.489 20.5 V 0.70 -0.70 d 691 2.57 Yes Yes
2001YT3 O C H 2002-03-23.19821 1.000E-05 09:45:44.460 1.500E-01 0.600 F 0.374 -0.152 +08° 05' 26.10" 1.000E-01 0.600 F 0.418 1.376 20.7 V 0.70 -0.50 d 691 2.32 Yes Yes
2002CD14 O C 2002-04-06.14812 1.000E-05 08:24:32.950 1.500E-01 0.600 F 0.294 -0.542 +24° 00' 09.20" 1.000E-01 0.600 F 0.403 -0.128 21.6 V 0.70 0.06 d 691 0.94 Yes Yes
2002CD14 O C 2002-04-06.15230 1.000E-05 08:24:32.710 1.500E-01 0.600 F 0.294 0.019 +24° 00' 10.20" 1.000E-01 0.600 F 0.403 -0.374 21.4 V 0.70 -0.14 d 691 0.62 Yes Yes
2002CD14 O C 2002-04-06.15660 1.000E-05 08:24:32.440 1.500E-01 0.600 F 0.294 0.276 +24° 00' 11.50" 1.000E-01 0.600 F 0.403 -0.352 22.5 V 0.70 0.96 d 691 0.74 Yes Yes
2002ES11 O C H 2002-04-06.16173 1.000E-05 09:14:40.640 1.500E-01 0.600 F 0.373 -0.179 +08° 49' 09.70" 1.000E-01 0.600 F 0.137 0.969 20.9 V 0.70 -0.93 d 691 1.71 Yes Yes
2002ES11 O C H 2002-04-06.16581 1.000E-05 09:14:40.580 1.500E-01 0.600 F 0.373 0.801 +08° 49' 04.80" 1.000E-01 0.600 F 0.137 -0.087 20.4 V 0.70 -1.43 d 691 1.42 Yes Yes
2002ES11 O C H 2002-04-06.17320 1.000E-05 09:14:40.330 1.500E-01 0.600 F 0.373 0.476 +08° 48' 59.10" 1.000E-01 0.600 F 0.137 1.181 21.2 V 0.70 -0.63 d 691 2.22 Yes Yes
2002ET11 O C H 2002-04-08.12571 1.000E-05 09:37:36.500 1.500E-01 0.600 F 0.286 0.019 +21° 55' 16.20" 1.000E-01 0.600 F 0.372 -0.260 21.7 V 0.70 -0.03 d 691 0.44 Yes Yes
2002ET11 O C H 2002-04-08.13095 1.000E-05 09:37:36.600 1.500E-01 0.600 F 0.286 1.253 +21° 55' 24.20" 1.000E-01 0.600 F 0.372 2.987 21.8 V 0.70 0.07 d 691 5.28 No Yes
2002ET11 O C H 2002-04-08.13635 1.000E-05 09:37:36.730 1.500E-01 0.600 F 0.286 2.902 +21° 55' 32.80" 1.000E-01 0.600 F 0.372 6.695 21.9 V 0.70 0.17 d 691 11.90 No Yes
1999ML O C 2002-04-08.21741 1.000E-05 12:49:56.590 1.500E-01 0.600 F 0.466 0.082 -06° 37' 13.60" 1.000E-01 0.600 F 0.363 -0.173 21.0 V 0.70 0.28 d 691 0.32 Yes Yes
1999ML O C 2002-04-08.23924 1.000E-05 12:49:55.050 1.500E-01 0.600 F 0.466 -0.190 -06° 37' 02.80" 1.000E-01 0.600 F 0.363 0.149 20.4 V 0.70 -0.32 d 691 0.40 Yes Yes
1999ML O C 2002-04-08.26119 1.000E-05 12:49:53.530 1.500E-01 0.600 F 0.466 -0.003 -06° 36' 52.60" 1.000E-01 0.600 F 0.363 -0.198 21.6 V 0.70 0.88 d 691 0.33 Yes Yes
1999GU3 O C t 2002-04-11.18619 1.000E-05 08:45:17.750 1.500E-01 0.735 F 0.251 0.947 +19° 15' 50.50" 1.000E-01 0.735 F 0.378 0.658 d 691 1.57 Yes No
1999GU3 O C t 2002-04-11.21009 1.000E-05 08:45:26.340 1.500E-01 0.735 F 0.251 0.388 +19° 19' 26.40" 1.000E-01 0.735 F 0.378 1.801 16.9 V 0.70 0.11 d 691 2.51 Yes Yes
1999GU3 O C t 2002-04-11.22008 1.000E-05 08:45:29.950 1.500E-01 0.735 F 0.251 0.077 +19° 20' 55.40" 1.000E-01 0.735 F 0.378 1.114 16.7 V 0.70 -0.08 d 691 1.52 Yes Yes
1999GU3 O C t 2002-04-11.22583 1.000E-05 08:45:32.070 1.500E-01 0.735 F 0.251 0.389 +19° 21' 47.60" 1.000E-01 0.735 F 0.378 1.711 16.8 V 0.70 0.02 d 691 2.39 Yes Yes
1999GU3 O C t 2002-04-11.23170 1.000E-05 08:45:34.290 1.500E-01 0.735 F 0.251 1.415 +19° 22' 40.10" 1.000E-01 0.735 F 0.378 1.546 17.0 V 0.70 0.22 d 691 2.85 Yes Yes
1999GU3 O C t 2002-04-11.32651 1.000E-05 08:46:09.900 1.500E-01 0.735 F 0.251 0.548 +19° 36' 49.20" 1.000E-01 0.735 F 0.378 1.211 17.1 V 0.70 0.32 d 691 1.81 Yes Yes
2002GK8 O C 2002-04-13.46205 1.000E-05 15:56:27.570 1.500E-01 0.600 F 0.344 -0.390 -00° 59' 17.30" 1.000E-01 0.600 F 0.465 -0.009 21.4 V 0.70 0.19 d 691 0.66 Yes Yes
2002GK8 O C 2002-04-13.47537 1.000E-05 15:56:26.550 1.500E-01 0.600 F 0.344 0.138 -00° 59' 32.20" 1.000E-01 0.600 F 0.465 -0.252 21.9 V 0.70 0.69 d 691 0.49 Yes Yes
2002GK8 O C 2002-04-13.48622 1.000E-05 15:56:25.690 1.500E-01 0.600 F 0.344 0.122 -00° 59' 44.20" 1.000E-01 0.600 F 0.465 -0.308 21.7 V 0.70 0.49 d 691 0.56 Yes Yes
2002ES11 O C 2002-04-14.22613 1.000E-05 09:14:03.470 1.500E-01 0.600 F 0.497 -0.149 +06° 32' 53.60" 1.000E-01 0.600 F 0.278 -0.511 22.1 V 0.70 0.19 d 691 0.95 Yes Yes
2002ES11 O C 2002-04-14.23087 1.000E-05 09:14:03.530 1.500E-01 0.600 F 0.497 0.369 +06° 32' 48.50" 1.000E-01 0.600 F 0.278 -0.421 22.0 V 0.70 0.09 d 691 1.00 Yes Yes
2002ES11 O C 2002-04-14.23559 1.000E-05 09:14:03.490 1.500E-01 0.600 F 0.497 -0.613 +06° 32' 43.30" 1.000E-01 0.600 F 0.278 -0.451 22.6 V 0.70 0.69 d 691 1.34 Yes Yes
2002GK8 O C H 2002-04-15.34474 1.000E-05 15:53:57.250 1.500E-01 0.600 F 0.438 -0.027 -01° 35' 12.10" 1.000E-01 0.600 F 0.370 0.038 21.9 V 0.70 0.81 d 691 0.08 Yes Yes
2002GK8 O C H 2002-04-15.34885 1.000E-05 15:53:56.890 1.500E-01 0.600 F 0.438 0.060 -01° 35' 16.40" 1.000E-01 0.600 F 0.370 0.631 22.2 V 0.70 1.11 d 691 1.06 Yes Yes
2002GK8 O C H 2002-04-15.35288 1.000E-05 15:53:56.500 1.500E-01 0.600 F 0.438 -0.406 -01° 35' 20.60" 1.000E-01 0.600 F 0.370 1.229 21.7 V 0.70 0.61 d 691 2.18 Yes Yes
2002HF8 O C 2002-04-19.28905 1.000E-05 14:05:08.500 1.500E-01 0.600 F 0.409 0.331 -09° 12' 54.40" 1.000E-01 0.600 F 0.266 -0.206 20.2 V 0.70 0.52 d 691 0.66 Yes Yes
2002HF8 O C 2002-04-19.31107 1.000E-05 14:05:06.740 1.500E-01 0.600 F 0.409 0.209 -09° 12' 49.20" 1.000E-01 0.600 F 0.266 -0.214 20.0 V 0.70 0.33 d 691 0.50 Yes Yes
2002HF8 O C 2002-04-19.33351 1.000E-05 14:05:04.950 1.500E-01 0.600 F 0.409 0.159 -09° 12' 43.80" 1.000E-01 0.600 F 0.266 -0.150 20.1 V 0.70 0.43 d 691 0.37 Yes Yes
2002HF8 O C 2002-04-20.29639 1.000E-05 14:03:51.120 1.500E-01 0.600 F 0.409 0.122 -09° 08' 53.60" 1.000E-01 0.600 F 0.266 -0.056 20.3 V 0.70 0.68 d 691 0.23 Yes Yes
2002HF8 O C 2002-04-20.30120 1.000E-05 14:03:50.680 1.500E-01 0.600 F 0.409 -0.624 -09° 08' 52.10" 1.000E-01 0.600 F 0.266 0.293 20.1 V 0.70 0.48 d 691 1.17 Yes Yes
2002HF8 O C 2002-04-20.30511 1.000E-05 14:03:50.410 1.500E-01 0.600 F 0.409 0.068 -09° 08' 51.60" 1.000E-01 0.600 F 0.266 -0.143 19.9 V 0.70 0.28 d 691 0.27 Yes Yes
2002GK8 O C H 2002-04-20.41269 1.000E-05 15:45:34.900 1.500E-01 0.600 F 0.201 -0.090 -03° 26' 51.30" 1.000E-01 0.600 F 0.173 0.539 21.2 V 0.70 0.43 d 691 0.92 Yes Yes
2002GK8 O C H 2002-04-20.41655 1.000E-05 15:45:34.370 1.500E-01 0.600 F 0.201 -1.190 -03° 26' 56.70" 1.000E-01 0.600 F 0.173 0.779 21.7 V 0.70 0.93 d 691 2.40 Yes Yes
2002GK8 O C H 2002-04-20.42037 1.000E-05 15:45:34.090 1.500E-01 0.600 F 0.201 1.382 -03° 27' 02.50" 1.000E-01 0.600 F 0.173 0.561 21.2 V 0.70 0.43 d 691 2.50 Yes Yes
2002HF8 O C 2002-04-21.34669 1.000E-05 14:02:28.810 1.500E-01 0.600 F 0.409 -0.254 -09° 04' 40.40" 1.000E-01 0.600 F 0.266 -0.254 20.2 V 0.70 0.63 d 691 0.60 Yes Yes
2002HF8 O C 2002-04-21.35089 1.000E-05 14:02:28.480 1.500E-01 0.600 F 0.409 -0.020 -09° 04' 39.20" 1.000E-01 0.600 F 0.266 -0.080 20.0 V 0.70 0.43 d 691 0.14 Yes Yes
2002HF8 O C 2002-04-21.35479 1.000E-05 14:02:28.200 1.500E-01 0.600 F 0.409 0.589 -09° 04' 38.40" 1.000E-01 0.600 F 0.266 -0.232 20.2 V 0.70 0.63 d 691 1.07 Yes Yes
2002GK8 O C H 2002-04-21.35960 1.000E-05 15:43:44.810 1.500E-01 0.600 F 0.415 -0.518 -03° 50' 21.80" 1.000E-01 0.600 F 0.306 0.345 21.0 V 0.70 0.30 d 691 1.05 Yes Yes
2002GK8 O C H 2002-04-21.36346 1.000E-05 15:43:44.360 1.500E-01 0.600 F 0.415 -0.085 -03° 50' 26.00" 1.000E-01 0.600 F 0.306 2.005 20.9 V 0.70 0.20 d 691 3.31 No Yes
2002GK8 O C H 2002-04-21.36725 1.000E-05 15:43:43.980 1.500E-01 0.600 F 0.415 1.268 -03° 50' 32.60" 1.000E-01 0.600 F 0.306 1.160 20.5 V 0.70 -0.20 d 691 2.88 Yes Yes
2002GT O C H 2002-04-22.22126 1.000E-05 13:22:03.730 1.500E-01 0.600 F 0.447 -0.648 -06° 08' 48.30" 1.000E-01 0.600 F 0.112 0.080 18.9 V 0.70 0.48 d 691 1.09 Yes Yes
2002HF8 O C 2002-04-22.22463 1.000E-05 14:01:19.530 1.500E-01 0.600 F 0.409 -0.248 -09° 01' 06.50" 1.000E-01 0.600 F 0.266 0.146 20.1 V 0.70 0.55 d 691 0.49 Yes Yes
2002HF8 O C 2002-04-22.22853 1.000E-05 14:01:19.200 1.500E-01 0.600 F 0.409 -0.340 -09° 01' 05.80" 1.000E-01 0.600 F 0.266 -0.087 20.1 V 0.70 0.55 d 691 0.59 Yes Yes
2002HF8 O C 2002-04-22.23243 1.000E-05 14:01:18.890 1.500E-01 0.600 F 0.409 -0.133 -09° 01' 05.20" 1.000E-01 0.600 F 0.266 -0.422 20.1 V 0.70 0.55 d 691 0.74 Yes Yes
2002GD11 O C H 2002-04-22.34450 1.000E-05 15:57:21.840 1.500E-01 0.600 F 0.344 -0.691 -00° 42' 21.50" 1.000E-01 0.600 F 0.465 0.541 18.8 V 0.70 0.39 d 691 1.47 Yes Yes
2002GD11 O C H 2002-04-22.34847 1.000E-05 15:57:21.850 1.500E-01 0.600 F 0.344 -0.600 -00° 42' 20.10" 1.000E-01 0.600 F 0.465 0.680 18.9 V 0.70 0.49 d 691 1.52 Yes Yes
2002GD11 O C H 2002-04-22.35295 1.000E-05 15:57:21.820 1.500E-01 0.600 F 0.344 -1.115 -00° 42' 18.40" 1.000E-01 0.600 F 0.465 0.958 18.8 V 0.70 0.39 d 691 2.46 Yes Yes
2002TD66 O C 2002-10-23.16030 1.000E-05 22:50:59.550 1.500E-01 0.735 F 0.000 -0.629 +08° 49' 13.50" 1.000E-01 0.735 F 0.378 -0.314 19.5 V 0.70 0.11 c 691 0.97 Yes Yes
2002TD66 O C 2002-10-23.16240 1.000E-05 22:50:59.190 1.500E-01 0.735 F 0.000 -0.009 +08° 49' 13.70" 1.000E-01 0.735 F 0.378 -0.120 19.8 V 0.70 0.41 c 691 0.17 Yes Yes
2002TD66 O C 2002-10-23.16447 1.000E-05 22:50:58.780 1.500E-01 0.735 F 0.000 -0.216 +08° 49' 14.20" 1.000E-01 0.735 F 0.378 0.375 19.8 V 0.70 0.41 c 691 0.59 Yes Yes
2002TD66 O C 2002-10-23.16672 1.000E-05 22:50:58.340 1.500E-01 0.735 F 0.000 -0.356 +08° 49' 14.40" 1.000E-01 0.735 F 0.378 0.570 c 691 0.92 Yes No
2002TD66 O C 2002-10-23.16871 1.000E-05 22:50:57.950 1.500E-01 0.735 F 0.000 -0.493 +08° 49' 12.90" 1.000E-01 0.735 F 0.378 -0.933 c 691 1.45 Yes No
2002TD66 O C 2002-10-23.17078 1.000E-05 22:50:57.520 1.500E-01 0.735 F 0.000 -0.995 +08° 49' 13.90" 1.000E-01 0.735 F 0.378 0.064 19.8 V 0.70 0.41 c 691 1.37 Yes Yes
2003EN16 O C 2003-03-08.39417 1.000E-05 13:00:30.530 1.500E-01 0.500 F 0.440 -0.704 -07° 32' 12.30" 1.000E-01 0.500 F 0.429 -0.554 20.4 V 0.70 0.20 c 691 1.80 Yes Yes
2003EN16 O C 2003-03-08.42085 1.000E-05 13:00:28.810 1.500E-01 0.500 F 0.440 -0.494 -07° 31' 35.90" 1.000E-01 0.500 F 0.429 -0.735 20.2 V 0.70 0.00 c 691 1.78 Yes Yes
2003EN16 O C 2003-03-08.44739 1.000E-05 13:00:27.090 1.500E-01 0.500 F 0.440 -0.447 -07° 30' 59.80" 1.000E-01 0.500 F 0.429 -1.070 20.5 V 0.70 0.30 c 691 2.32 Yes Yes
1996FS1 O C 2003-03-09.36875 1.000E-05 11:38:28.680 1.500E-01 0.500 F 0.368 0.112 +01° 11' 39.90" 1.000E-01 0.500 F 0.298 -0.159 18.4 V 0.70 -0.32 c 691 0.40 Yes Yes
2003EZ16 O C 2003-03-09.37945 1.000E-05 11:35:54.050 1.500E-01 0.500 F 0.512 -0.029 -01° 45' 50.60" 1.000E-01 0.500 F 0.309 0.118 20.4 V 0.70 -0.13 c 691 0.25 Yes Yes
1996FS1 O C 2003-03-09.39511 1.000E-05 11:38:20.950 1.500E-01 0.500 F 0.368 -0.003 +01° 14' 24.00" 1.000E-01 0.500 F 0.298 -0.002 18.6 V 0.70 -0.12 c 691 0.01 Yes Yes
2003EZ16 O C 2003-03-09.40605 1.000E-05 11:35:49.340 1.500E-01 0.500 F 0.512 0.034 -01° 45' 58.60" 1.000E-01 0.500 F 0.309 0.192 20.5 V 0.70 -0.03 c 691 0.40 Yes Yes
1996FS1 O C 2003-03-09.42153 1.000E-05 11:38:13.220 1.500E-01 0.500 F 0.368 -0.272 +01° 17' 08.20" 1.000E-01 0.500 F 0.298 0.160 18.4 V 0.70 -0.32 c 691 0.64 Yes Yes
2003EZ16 O C 2003-03-09.43216 1.000E-05 11:35:44.730 1.500E-01 0.500 F 0.512 -0.111 -01° 46' 06.50" 1.000E-01 0.500 F 0.309 0.182 20.4 V 0.70 -0.13 c 691 0.44 Yes Yes
1999AP10 O C 2003-03-23.26903 1.000E-05 11:42:38.600 1.500E-01 0.500 F 0.482 -0.300 +01° 48' 31.60" 1.000E-01 0.500 F 0.469 -0.090 19.6 V 0.70 -0.36 c 691 0.63 Yes Yes
2000FJ10 O C 2003-03-23.30007 1.000E-05 11:53:21.890 1.500E-01 0.500 F 0.286 0.678 -02° 16' 49.40" 1.000E-01 0.500 F 0.347 -0.865 19.9 V 0.70 0.00 c 691 2.22 Yes Yes
1999AP10 O C 2003-03-23.31306 1.000E-05 11:42:35.390 1.500E-01 0.500 F 0.482 -0.260 +01° 48' 44.90" 1.000E-01 0.500 F 0.469 -0.452 19.3 V 0.70 -0.67 c 691 1.04 Yes Yes
2000FJ10 O C 2003-03-23.32630 1.000E-05 11:53:19.280 1.500E-01 0.500 F 0.286 0.401 -02° 16' 13.90" 1.000E-01 0.500 F 0.347 -0.220 20.1 V 0.70 0.20 c 691 0.93 Yes Yes
1999AP10 O C 2003-03-23.33992 1.000E-05 11:42:33.440 1.500E-01 0.500 F 0.482 -0.137 +01° 48' 53.70" 1.000E-01 0.500 F 0.469 0.022 19.6 V 0.70 -0.37 c 691 0.28 Yes Yes
2000FJ10 O C 2003-03-23.35480 1.000E-05 11:53:16.490 1.500E-01 0.500 F 0.286 0.685 -02° 15' 36.50" 1.000E-01 0.500 F 0.347 -0.699 20.2 V 0.70 0.30 c 691 1.98 Yes Yes
1992SY O C 2003-03-23.36018 1.000E-05 12:27:23.580 1.500E-01 0.500 F 0.488 -0.017 -00° 27' 49.30" 1.000E-01 0.500 F 0.257 0.336 15.1 V 0.70 -0.25 c 691 0.68 Yes Yes
1992SY O C 2003-03-23.38874 1.000E-05 12:27:20.890 1.500E-01 0.500 F 0.488 0.025 -00° 28' 47.10" 1.000E-01 0.500 F 0.257 0.272 15.2 V 0.70 -0.15 c 691 0.55 Yes Yes
1992SY O C 2003-03-23.42478 1.000E-05 12:27:17.540 1.500E-01 0.500 F 0.488 0.098 -00° 29' 59.80" 1.000E-01 0.500 F 0.257 0.292 15.2 V 0.70 -0.15 c 691 0.62 Yes Yes
2003AJ73 O C 2003-03-24.20217 1.000E-05 11:32:34.060 1.500E-01 0.500 F 0.364 -0.389 +07° 30' 05.30" 1.000E-01 0.500 F 0.553 1.008 16.0 V 0.70 0.05 c 691 2.17 Yes Yes
2000NF5 O C 2003-03-24.22289 1.000E-05 11:37:01.370 1.500E-01 0.500 F 0.426 -0.374 -00° 07' 06.20" 1.000E-01 0.500 F 0.383 -0.002 18.0 V 0.70 -0.47 c 691 0.75 Yes Yes
2003AJ73 O C 2003-03-24.22817 1.000E-05 11:32:33.060 1.500E-01 0.500 F 0.364 -0.236 +07° 28' 31.80" 1.000E-01 0.500 F 0.553 1.015 15.6 V 0.70 -0.35 c 691 2.10 Yes Yes
2000NF5 O C 2003-03-24.24956 1.000E-05 11:36:59.320 1.500E-01 0.500 F 0.426 -0.458 -00° 06' 53.90" 1.000E-01 0.500 F 0.383 -0.009 18.0 V 0.70 -0.47 c 691 0.92 Yes Yes
2003AJ73 O C 2003-03-24.25473 1.000E-05 11:32:32.010 1.500E-01 0.500 F 0.364 -0.124 +07° 26' 55.80" 1.000E-01 0.500 F 0.553 0.670 15.5 V 0.70 -0.45 c 691 1.37 Yes Yes
2000NF5 O C 2003-03-24.27613 1.000E-05 11:36:57.290 1.500E-01 0.500 F 0.399 -0.284 -00° 06' 41.70" 1.000E-01 0.500 F 0.360 -0.048 18.0 V 0.70 -0.47 c 691 0.58 Yes Yes
2002SQ O C 2003-03-24.37369 1.000E-05 12:50:27.390 1.500E-01 0.500 F 0.384 -0.214 -03° 02' 55.60" 1.000E-01 0.500 F 0.169 -0.317 18.5 V 0.70 0.13 c 691 0.77 Yes Yes
2002SQ O C 2003-03-24.40024 1.000E-05 12:50:24.700 1.500E-01 0.500 F 0.384 -0.137 -03° 01' 28.60" 1.000E-01 0.500 F 0.169 -0.050 18.4 V 0.70 0.03 c 691 0.30 Yes Yes
2002SQ O C 2003-03-24.42805 1.000E-05 12:50:21.890 1.500E-01 0.500 F 0.384 -0.204 -02° 59' 58.10" 1.000E-01 0.500 F 0.169 -0.369 18.4 V 0.70 0.03 c 691 0.85 Yes Yes
1992SY O C 2003-03-26.29578 1.000E-05 12:23:40.250 1.500E-01 0.500 F 0.459 0.506 -01° 59' 36.90" 1.000E-01 0.500 F 0.038 0.744 15.3 V 0.70 -0.04 c 691 1.81 Yes Yes
1992SY O C 2003-03-26.32248 1.000E-05 12:23:38.010 1.500E-01 0.500 F 0.459 0.471 -02° 00' 23.00" 1.000E-01 0.500 F 0.038 0.982 15.2 V 0.70 -0.14 c 691 2.19 Yes Yes

[1-200] [201-400] [401-600] [601-800] [801-1000] [1001-1200] [1201-1400] [1401-1600] [1601-1800] [1801-2000] [2001-2200] [2201-2400] [2401-2600] [2601-2800] [2801-3000] [3001-3200] [3201-3400] [3401-3600] [3601-3800] [3801-4000] [4001-4200] [4201-4400] [4401-4600] [4601-4800] [4801-5000] [5001-5200] [5201-5400] [5401-5600] [5601-5800] [5801-6000] [6001-6200] [6201-6400] [6401-6600] [6601-6800] [6801-7000] [7001-7200] [7201-7400] [7401-7600] [7601-7800] [7801-8000] [8001-8200] [8201-8400] [8401-8600] [8601-8800] [8801-9000] [9001-9200] [9201-9400] [9401-9600] [9601-9800] [9801-10000] [10001-10200] [10201-10400] [10401-10600] [10601-10800] [10801-11000] [11001-11200] [11201-11400] [11401-11600] [11601-11800] [11801-12000] [12001-12200] [12201-12400] [12401-12600] [12601-12800] [12801-13000] [13001-13200] [13201-13400] [13401-13600] [13601-13800] [13801-14000] [14001-14200] [14201-14400] [14401-14600] [14601-14800] [14801-15000] [15001-15200] [15201-15400] [15401-15600] [15601-15800] [15801-16000] [16001-16200] [16201-16400] [16401-16600] [16601-16800] [16801-17000] [17001-17200] [17201-17400] [17401-17600] [17601-17800] [17801-18000] [18001-18200] [18201-18400] [18401-18600] [18601-18800] [18801-19000] [19001-19200] [19201-19400] [19401-19600] [19601-19800] [19801-20000] [20001-20200] [20201-20400] [20401-20600] [20601-20800] [20801-21000] [21001-21200] [21201-21400] [21401-21600] [21601-21800] [21801-22000] [22001-22200] [22201-22400] [22401-22600] [22601-22800] [22801-23000] [23001-23200] [23201-23400] [23401-23600] [23601-23800] [23801-24000] [24001-24200] [24201-24400] [24401-24600] [24601-24800] [24801-25000] [25001-25200] [25201-25400] [25401-25600] [25601-25800] [25801-26000] [26001-26200] [26201-26400] [26401-26600] [26601-26800] [26801-27000] [27001-27200] [27201-27400] [27401-27600] [27601-27800] [27801-28000] [28001-28200] [28201-28400] [28401-28600] [28601-28800] [28801-29000] [29001-29200] [29201-29400] [29401-29600] [29601-29800] [29801-30000] [30001-30200] [30201-30400] [30401-30600] [30601-30800] [30801-31000] [31001-31200] [31201-31400] [31401-31600] [31601-31800] [31801-32000] [32001-32200] [32201-32400] [32401-32600] [32601-32800] [32801-33000] [33001-33200] [33201-33400] [33401-33600] [33601-33800] [33801-34000] [34001-34200] [34201-34400] [34401-34600] [34601-34800] [34801-35000] [35001-35200] [35201-35400] [35401-35600] [35601-35800] [35801-36000] [36001-36200] [36201-36400] [36401-36600] [36601-36800] [36801-37000] [37001-37200] [37201-37400] [37401-37600] [37601-37800] [37801-38000] [38001-38200] [38201-38400] [38401-38600] [38601-38800] [38801-39000] [39001-39200] [39201-39400] [39401-39600] [39601-39800] [39801-40000] [40001-40200] [40201-40400] [40401-40600] [40601-40800] [40801-41000] [41001-41200] [41201-41400] [41401-41600] [41601-41800] [41801-42000] [42001-42200] [42201-42400] [42401-42600] [42601-42800] [42801-43000] [43001-43200] [43201-43400] [43401-43600] [43601-43800] [43801-44000] [44001-44200] [44201-44400] [44401-44600] [44601-44800] [44801-45000] [45001-45200] [45201-45400] [45401-45600] [45601-45800] [45801-46000] [46001-46200] [46201-46400] [46401-46600] [46601-46800] [46801-47000] [47001-47200] [47201-47400] [47401-47600] [47601-47800] [47801-48000] [48001-48200] [48201-48400] [48401-48600] [48601-48800] [48801-49000] [49001-49200] [49201-49400] [49401-49600] [49601-49800] [49801-50000] [50001-50200] [50201-50388]